createdAt,value
2023-05-21T00:01:48.362Z,22.46
2023-05-21T00:04:17.689Z,22.46
2023-05-21T00:06:45.470Z,22.45
2023-05-21T00:09:13.661Z,22.45
2023-05-21T00:11:41.452Z,22.47
2023-05-21T00:14:09.297Z,22.45
2023-05-21T00:16:37.061Z,22.43
2023-05-21T00:19:04.938Z,22.41
2023-05-21T00:21:33.240Z,22.38
2023-05-21T00:24:00.963Z,22.33
2023-05-21T00:26:28.766Z,22.35
2023-05-21T00:28:58.238Z,22.34
2023-05-21T00:31:26.040Z,22.32
2023-05-21T00:33:54.062Z,22.30
2023-05-21T00:36:23.627Z,22.31
2023-05-21T00:38:52.325Z,22.29
2023-05-21T00:41:22.922Z,22.28
2023-05-21T00:43:50.878Z,22.25
2023-05-21T00:46:21.366Z,22.28
2023-05-21T00:48:50.713Z,22.23
2023-05-21T00:51:18.929Z,22.23
2023-05-21T00:53:47.072Z,22.24
2023-05-21T00:56:14.946Z,22.23
2023-05-21T00:58:42.817Z,22.22
2023-05-21T01:01:13.734Z,22.22
2023-05-21T01:03:42.771Z,22.21
2023-05-21T01:06:11.597Z,22.20
2023-05-21T01:08:40.820Z,22.22
2023-05-21T01:11:11.016Z,22.21
2023-05-21T01:13:41.391Z,22.20
2023-05-21T01:16:10.914Z,22.17
2023-05-21T01:18:38.952Z,22.13
2023-05-21T01:21:09.994Z,22.10
2023-05-21T01:23:37.867Z,22.10
2023-05-21T01:26:07.316Z,22.08
2023-05-21T01:28:35.172Z,22.06
2023-05-21T01:31:24.784Z,22.04
2023-05-21T01:33:56.287Z,21.97
2023-05-21T01:36:29.086Z,21.93
2023-05-21T01:39:16.302Z,21.93
2023-05-21T01:41:46.167Z,21.87
2023-05-21T01:44:17.691Z,21.87
2023-05-21T01:46:45.711Z,21.86
2023-05-21T01:49:14.506Z,21.85
2023-05-21T01:51:42.725Z,21.84
2023-05-21T01:54:10.747Z,21.85
2023-05-21T01:56:38.555Z,21.84
2023-05-21T01:59:06.420Z,21.85
2023-05-21T02:01:34.299Z,21.84
2023-05-21T02:04:02.222Z,21.82
2023-05-21T02:06:31.788Z,21.80
2023-05-21T02:09:00.114Z,21.79
2023-05-21T02:11:28.113Z,21.76
2023-05-21T02:13:57.413Z,21.75
2023-05-21T02:16:27.109Z,21.73
2023-05-21T02:18:57.514Z,21.73
2023-05-21T02:21:25.566Z,21.71
2023-05-21T02:23:53.330Z,21.71
2023-05-21T02:26:22.487Z,21.70
2023-05-21T02:28:50.390Z,21.68
2023-05-21T02:31:18.297Z,21.68
2023-05-21T02:33:46.250Z,21.64
2023-05-21T02:36:15.345Z,21.63
2023-05-21T02:38:43.883Z,21.61
2023-05-21T02:41:12.506Z,21.55
2023-05-21T02:43:40.493Z,21.56
2023-05-21T02:46:08.444Z,21.56
2023-05-21T02:48:36.616Z,21.55
2023-05-21T02:51:05.887Z,21.54
2023-05-21T02:53:33.705Z,21.51
2023-05-21T02:56:01.504Z,21.46
2023-05-21T02:58:29.351Z,21.45
2023-05-21T03:00:57.158Z,21.42
2023-05-21T03:03:25.270Z,21.40
2023-05-21T03:05:53.160Z,21.37
2023-05-21T03:08:21.731Z,21.31
2023-05-21T03:10:49.551Z,21.32
2023-05-21T03:13:17.892Z,21.30
2023-05-21T03:15:46.565Z,21.28
2023-05-21T03:18:15.146Z,21.25
2023-05-21T03:20:46.042Z,21.23
2023-05-21T03:23:16.658Z,21.20
2023-05-21T03:25:46.181Z,21.17
2023-05-21T03:28:14.570Z,21.16
2023-05-21T03:30:49.734Z,21.10
2023-05-21T03:33:37.594Z,21.05
2023-05-21T03:36:18.576Z,21.02
2023-05-21T03:38:46.384Z,21.01
2023-05-21T03:41:14.354Z,21.01
2023-05-21T03:43:47.271Z,20.99
2023-05-21T03:46:15.406Z,20.97
2023-05-21T03:49:06.241Z,20.92
2023-05-21T03:51:38.253Z,20.92
2023-05-21T03:54:06.288Z,20.91
2023-05-21T03:56:35.707Z,20.90
2023-05-21T03:59:04.000Z,20.89
2023-05-21T04:01:33.338Z,20.87
2023-05-21T04:04:02.611Z,20.82
2023-05-21T04:06:30.621Z,20.85
2023-05-21T04:08:58.968Z,20.84
2023-05-21T04:11:26.786Z,20.81
2023-05-21T04:13:54.582Z,20.80
2023-05-21T04:16:22.577Z,20.76
2023-05-21T04:18:51.478Z,20.77
2023-05-21T04:21:19.444Z,20.74
2023-05-21T04:23:47.312Z,20.69
2023-05-21T04:26:25.256Z,20.65
2023-05-21T04:28:59.399Z,20.64
2023-05-21T04:31:27.290Z,20.64
2023-05-21T04:33:55.111Z,20.64
2023-05-21T04:36:23.136Z,20.61
2023-05-21T04:38:50.928Z,20.61
2023-05-21T04:41:19.101Z,20.58
2023-05-21T04:43:47.341Z,20.57
2023-05-21T04:46:16.314Z,20.57
2023-05-21T04:48:45.109Z,20.53
2023-05-21T04:51:15.072Z,20.52
2023-05-21T04:53:43.353Z,20.45
2023-05-21T04:56:11.101Z,20.48
2023-05-21T04:58:40.505Z,20.52
2023-05-21T05:01:09.059Z,20.54
2023-05-21T05:03:37.060Z,20.57
2023-05-21T05:06:05.569Z,20.60
2023-05-21T05:08:33.993Z,20.64
2023-05-21T05:11:02.990Z,20.65
2023-05-21T05:13:30.950Z,20.67
2023-05-21T05:16:00.376Z,20.69
2023-05-21T05:18:29.558Z,20.72
2023-05-21T05:20:57.569Z,20.78
2023-05-21T05:23:25.607Z,20.80
2023-05-21T05:25:53.709Z,20.82
2023-05-21T05:28:21.937Z,20.85
2023-05-21T05:30:49.957Z,20.90
2023-05-21T05:33:24.936Z,20.94
2023-05-21T05:35:53.878Z,20.97
2023-05-21T05:38:22.194Z,21.05
2023-05-21T05:40:50.062Z,21.13
2023-05-21T05:43:17.931Z,21.18
2023-05-21T05:45:46.217Z,21.26
2023-05-21T05:48:16.824Z,21.29
2023-05-21T05:50:45.787Z,21.34
2023-05-21T05:53:14.588Z,21.38
2023-05-21T05:55:42.424Z,21.44
2023-05-21T05:58:11.162Z,21.49
2023-05-21T06:01:04.624Z,21.55
2023-05-21T06:03:32.642Z,21.65
2023-05-21T06:06:06.647Z,21.71
2023-05-21T06:08:37.341Z,21.80
2023-05-21T06:11:05.895Z,21.75
2023-05-21T06:13:33.776Z,21.96
2023-05-21T06:16:04.016Z,22.08
2023-05-21T06:18:32.813Z,22.22
2023-05-21T06:21:00.747Z,22.31
2023-05-21T06:23:29.261Z,22.43
2023-05-21T06:25:57.047Z,22.57
2023-05-21T06:28:26.394Z,22.70
2023-05-21T06:30:55.341Z,22.85
2023-05-21T06:33:25.079Z,23.01
2023-05-21T06:35:53.489Z,23.19
2023-05-21T06:38:21.462Z,23.34
2023-05-21T06:40:50.037Z,23.53
2023-05-21T06:43:31.076Z,23.66
2023-05-21T06:46:26.018Z,23.79
2023-05-21T06:48:53.977Z,23.90
2023-05-21T06:51:22.102Z,24.04
2023-05-21T06:53:49.916Z,24.13
2023-05-21T06:56:18.916Z,24.23
2023-05-21T06:58:47.315Z,24.31
2023-05-21T07:01:17.365Z,24.38
2023-05-21T07:03:47.919Z,24.45
2023-05-21T07:06:16.724Z,24.57
2023-05-21T07:08:46.322Z,24.64
2023-05-21T07:11:14.375Z,24.67
2023-05-21T07:13:42.451Z,24.70
2023-05-21T07:16:10.528Z,24.72
2023-05-21T07:18:39.894Z,24.71
2023-05-21T07:21:07.686Z,24.72
2023-05-21T07:23:36.532Z,24.76
2023-05-21T07:26:04.604Z,24.80
2023-05-21T07:28:32.326Z,24.82
2023-05-21T07:31:01.035Z,24.83
2023-05-21T07:33:34.879Z,24.84
2023-05-21T07:36:02.950Z,24.85
2023-05-21T07:38:31.587Z,24.92
2023-05-21T07:40:59.359Z,24.99
2023-05-21T07:43:27.218Z,25.01
2023-05-21T07:45:55.061Z,25.02
2023-05-21T07:48:23.001Z,25.06
2023-05-21T07:50:56.556Z,25.07
2023-05-21T07:53:24.462Z,25.04
2023-05-21T07:55:53.135Z,25.06
2023-05-21T07:58:25.508Z,25.13
2023-05-21T08:00:54.099Z,25.16
2023-05-21T08:03:22.072Z,25.18
2023-05-21T08:05:52.071Z,25.17
2023-05-21T08:08:22.120Z,25.17
2023-05-21T08:10:51.562Z,25.15
2023-05-21T08:13:21.576Z,25.22
2023-05-21T08:15:52.701Z,25.26
2023-05-21T08:18:23.934Z,25.34
2023-05-21T08:20:54.327Z,25.38
2023-05-21T08:23:24.722Z,25.39
2023-05-21T08:25:55.862Z,25.41
2023-05-21T08:28:27.562Z,25.43
2023-05-21T08:30:55.927Z,25.47
2023-05-21T08:33:25.691Z,25.44
2023-05-21T08:35:53.601Z,25.52
2023-05-21T08:38:28.796Z,25.56
2023-05-21T08:41:34.780Z,25.65
2023-05-21T08:44:04.350Z,25.73
2023-05-21T08:46:36.692Z,25.81
2023-05-21T08:49:04.619Z,25.83
2023-05-21T08:51:33.994Z,25.88
2023-05-21T08:54:02.880Z,25.92
2023-05-21T08:56:32.713Z,25.97
2023-05-21T08:59:02.179Z,26.01
2023-05-21T09:01:34.750Z,26.05
2023-05-21T09:04:21.308Z,26.06
2023-05-21T09:06:55.170Z,26.11
2023-05-21T09:10:08.779Z,26.18
2023-05-21T09:12:37.895Z,26.17
2023-05-21T09:15:07.149Z,26.29
2023-05-21T09:17:37.269Z,26.29
2023-05-21T09:20:27.242Z,26.40
2023-05-21T09:23:04.935Z,26.48
2023-05-21T09:25:37.659Z,26.54
2023-05-21T09:28:17.124Z,26.63
2023-05-21T09:30:46.949Z,26.70
2023-05-21T09:33:31.815Z,26.79
2023-05-21T09:35:59.813Z,26.77
2023-05-21T09:38:29.395Z,26.80
2023-05-21T09:40:58.688Z,26.89
2023-05-21T09:43:27.426Z,26.92
2023-05-21T09:45:59.743Z,26.95
2023-05-21T09:48:42.782Z,27.05
2023-05-21T09:51:20.375Z,27.08
2023-05-21T09:53:59.803Z,27.16
2023-05-21T09:56:30.676Z,27.23
2023-05-21T09:59:03.449Z,27.31
2023-05-21T10:01:34.071Z,27.42
2023-05-21T10:04:07.027Z,27.51
2023-05-21T10:06:42.238Z,27.57
2023-05-21T10:09:12.040Z,27.62
2023-05-21T10:11:43.476Z,27.67
2023-05-21T10:14:21.154Z,27.71
2023-05-21T10:16:52.530Z,27.77
2023-05-21T10:19:22.639Z,27.85
2023-05-21T10:21:52.789Z,27.91
2023-05-21T10:24:22.057Z,27.97
2023-05-21T10:26:50.891Z,28.04
2023-05-21T10:29:21.134Z,28.09
2023-05-21T10:31:52.599Z,28.09
2023-05-21T10:34:23.321Z,28.13
2023-05-21T10:36:52.575Z,28.14
2023-05-21T10:39:22.435Z,28.18
2023-05-21T10:42:42.427Z,28.23
2023-05-21T10:46:01.084Z,28.16
2023-05-21T10:48:59.845Z,28.13
2023-05-21T10:52:18.842Z,28.09
2023-05-21T10:55:11.391Z,28.08
2023-05-21T10:58:26.531Z,28.07
2023-05-21T11:00:56.757Z,28.03
2023-05-21T11:03:25.668Z,28.09
2023-05-21T11:05:57.498Z,28.15
2023-05-21T11:08:28.034Z,28.16
2023-05-21T11:10:59.791Z,28.17
2023-05-21T11:13:44.353Z,28.20
2023-05-21T11:16:16.766Z,28.28
2023-05-21T11:18:47.340Z,28.36
2023-05-21T11:21:21.023Z,28.40
2023-05-21T11:24:05.103Z,28.46
2023-05-21T11:26:48.217Z,28.54
2023-05-21T11:29:22.321Z,28.56
2023-05-21T11:32:05.425Z,28.64
2023-05-21T11:34:48.441Z,28.72
2023-05-21T11:37:26.809Z,28.79
2023-05-21T11:39:56.568Z,28.84
2023-05-21T11:42:35.035Z,28.99
2023-05-21T11:45:05.861Z,29.01
2023-05-21T11:47:33.844Z,29.08
2023-05-21T11:50:04.568Z,29.14
2023-05-21T11:52:33.169Z,29.19
2023-05-21T11:55:01.146Z,29.28
2023-05-21T11:57:32.960Z,29.37
2023-05-21T12:00:10.978Z,29.44
2023-05-21T12:02:50.848Z,29.51
2023-05-21T12:05:18.730Z,29.54
2023-05-21T12:07:50.005Z,29.63
2023-05-21T12:10:22.074Z,29.73
2023-05-21T12:12:56.581Z,29.78
2023-05-21T12:15:26.912Z,29.88
2023-05-21T12:17:56.922Z,29.93
2023-05-21T12:20:28.210Z,30.02
2023-05-21T12:22:58.989Z,30.04
2023-05-21T12:25:27.987Z,30.08
2023-05-21T12:27:58.472Z,30.11
2023-05-21T12:30:27.081Z,30.13
2023-05-21T12:32:58.562Z,30.22
2023-05-21T12:35:26.560Z,30.23
2023-05-21T12:37:54.537Z,30.21
2023-05-21T12:40:22.525Z,30.20
2023-05-21T12:42:51.553Z,30.17
2023-05-21T12:45:21.104Z,30.13
2023-05-21T12:47:56.365Z,30.14
2023-05-21T12:50:24.347Z,30.16
2023-05-21T12:52:56.007Z,30.21
2023-05-21T12:55:26.976Z,30.24
2023-05-21T12:58:10.763Z,30.13
2023-05-21T13:00:41.548Z,30.22
2023-05-21T13:03:09.377Z,30.30
2023-05-21T13:05:41.567Z,30.31
2023-05-21T13:08:10.682Z,30.31
2023-05-21T13:10:38.849Z,30.36
2023-05-21T13:13:08.221Z,30.40
2023-05-21T13:15:35.983Z,30.45
2023-05-21T13:18:04.038Z,30.45
2023-05-21T13:20:31.821Z,30.42
2023-05-21T13:22:59.740Z,30.50
2023-05-21T13:25:29.141Z,30.57
2023-05-21T13:27:57.994Z,30.62
2023-05-21T13:30:26.141Z,30.65
2023-05-21T13:32:54.407Z,30.69
2023-05-21T13:35:22.350Z,30.74
2023-05-21T13:37:50.477Z,30.73
2023-05-21T13:40:18.353Z,30.80
2023-05-21T13:42:49.071Z,30.87
2023-05-21T13:45:20.907Z,30.88
2023-05-21T13:47:50.675Z,30.92
2023-05-21T13:50:20.110Z,30.99
2023-05-21T13:52:47.884Z,31.05
2023-05-21T13:55:16.082Z,31.12
2023-05-21T13:57:44.492Z,31.19
2023-05-21T14:00:16.248Z,31.23
2023-05-21T14:02:45.005Z,31.23
2023-05-21T14:05:13.658Z,31.23
2023-05-21T14:07:42.105Z,31.26
2023-05-21T14:10:10.594Z,31.27
2023-05-21T14:12:38.902Z,31.26
2023-05-21T14:15:07.670Z,31.26
2023-05-21T14:17:35.785Z,31.28
2023-05-21T14:20:05.672Z,31.30
2023-05-21T14:22:35.035Z,31.26
2023-05-21T14:25:04.659Z,31.27
2023-05-21T14:27:32.482Z,31.28
2023-05-21T14:30:00.309Z,31.30
2023-05-21T14:32:28.139Z,31.34
2023-05-21T14:34:56.855Z,31.38
2023-05-21T14:37:24.603Z,31.43
2023-05-21T14:39:52.411Z,31.44
2023-05-21T14:42:20.231Z,31.49
2023-05-21T14:44:48.002Z,31.48
2023-05-21T14:47:15.886Z,31.50
2023-05-21T14:49:43.670Z,31.52
2023-05-21T14:52:11.920Z,31.52
2023-05-21T14:54:39.690Z,31.52
2023-05-21T14:57:07.464Z,31.57
2023-05-21T14:59:37.460Z,31.56
2023-05-21T15:02:05.681Z,31.58
2023-05-21T15:04:33.581Z,31.60
2023-05-21T15:07:01.397Z,31.63
2023-05-21T15:09:29.178Z,31.62
2023-05-21T15:11:56.957Z,31.67
2023-05-21T15:14:26.446Z,31.68
2023-05-21T15:16:54.237Z,31.68
2023-05-21T15:19:26.015Z,31.69
2023-05-21T15:21:53.848Z,31.69
2023-05-21T15:24:21.640Z,31.72
2023-05-21T15:26:49.743Z,31.73
2023-05-21T15:29:17.551Z,31.75
2023-05-21T15:31:45.648Z,31.74
2023-05-21T15:34:13.822Z,31.78
2023-05-21T15:36:41.639Z,31.77
2023-05-21T15:39:09.413Z,31.75
2023-05-21T15:41:38.263Z,31.72
2023-05-21T15:44:06.241Z,31.76
2023-05-21T15:46:34.186Z,31.80
2023-05-21T15:49:01.988Z,31.81
2023-05-21T15:51:31.198Z,31.88
2023-05-21T15:53:59.538Z,31.89
2023-05-21T15:56:27.369Z,31.91
2023-05-21T15:58:58.161Z,31.91
2023-05-21T16:01:27.860Z,31.88
2023-05-21T16:03:56.289Z,31.91
2023-05-21T16:06:24.229Z,31.94
2023-05-21T16:08:52.262Z,31.97
2023-05-21T16:11:20.195Z,32.01
2023-05-21T16:13:49.907Z,32.00
2023-05-21T16:16:18.003Z,32.00
2023-05-21T16:18:48.246Z,32.02
2023-05-21T16:21:16.215Z,32.01
2023-05-21T16:23:45.563Z,32.00
2023-05-21T16:26:13.383Z,31.97
2023-05-21T16:28:41.288Z,31.99
2023-05-21T16:31:10.806Z,31.96
2023-05-21T16:33:39.002Z,31.95
2023-05-21T16:36:06.988Z,31.92
2023-05-21T16:38:34.689Z,31.89
2023-05-21T16:41:02.544Z,31.90
2023-05-21T16:43:30.545Z,31.91
2023-05-21T16:45:58.447Z,31.91
2023-05-21T16:48:26.240Z,31.88
2023-05-21T16:50:54.063Z,31.85
2023-05-21T16:53:21.879Z,31.83
2023-05-21T16:55:49.757Z,31.81
2023-05-21T16:58:17.713Z,31.81
2023-05-21T17:00:46.003Z,31.77
2023-05-21T17:03:14.057Z,31.78
2023-05-21T17:05:42.185Z,31.75
2023-05-21T17:08:10.211Z,31.72
2023-05-21T17:10:38.068Z,31.69
2023-05-21T17:13:17.592Z,31.66
2023-05-21T17:15:53.354Z,31.59
2023-05-21T17:18:21.856Z,31.49
2023-05-21T17:20:50.078Z,31.44
2023-05-21T17:23:17.956Z,31.37
2023-05-21T17:25:47.117Z,31.33
2023-05-21T17:28:14.998Z,31.29
2023-05-21T17:30:43.001Z,31.22
2023-05-21T17:33:14.006Z,31.18
2023-05-21T17:35:41.872Z,31.12
2023-05-21T17:38:14.090Z,31.07
2023-05-21T17:40:41.959Z,31.02
2023-05-21T17:43:10.010Z,30.96
2023-05-21T17:45:38.072Z,30.92
2023-05-21T17:48:08.796Z,30.69
2023-05-21T17:50:36.566Z,30.73
2023-05-21T17:53:04.303Z,30.71
2023-05-21T17:55:32.068Z,30.69
2023-05-21T17:57:59.946Z,30.66
2023-05-21T18:00:27.940Z,30.63
2023-05-21T18:02:59.760Z,30.59
2023-05-21T18:05:29.389Z,30.57
2023-05-21T18:07:57.192Z,30.51
2023-05-21T18:10:25.048Z,30.49
2023-05-21T18:12:54.412Z,30.45
2023-05-21T18:15:22.187Z,30.40
2023-05-21T18:17:50.027Z,30.35
2023-05-21T18:20:18.333Z,30.30
2023-05-21T18:22:46.165Z,30.23
2023-05-21T18:25:13.971Z,30.20
2023-05-21T18:27:42.452Z,30.15
2023-05-21T18:30:10.805Z,30.10
2023-05-21T18:32:39.202Z,30.02
2023-05-21T18:35:13.122Z,30.01
2023-05-21T18:37:44.599Z,29.93
2023-05-21T18:40:13.412Z,29.86
2023-05-21T18:42:41.406Z,29.77
2023-05-21T18:45:10.432Z,29.66
2023-05-21T18:47:40.291Z,29.50
2023-05-21T18:50:13.429Z,29.40
2023-05-21T18:52:41.765Z,29.25
2023-05-21T18:55:10.071Z,29.10
2023-05-21T18:57:39.954Z,28.97
2023-05-21T19:00:11.118Z,28.84
2023-05-21T19:02:40.696Z,28.52
2023-05-21T19:05:09.356Z,28.58
2023-05-21T19:07:37.323Z,28.54
2023-05-21T19:10:06.157Z,28.47
2023-05-21T19:12:36.040Z,28.40
2023-05-21T19:15:04.851Z,28.32
2023-05-21T19:17:34.519Z,28.24
2023-05-21T19:20:05.258Z,28.18
2023-05-21T19:22:33.873Z,28.09
2023-05-21T19:25:01.734Z,28.02
2023-05-21T19:27:29.742Z,27.96
2023-05-21T19:29:58.945Z,27.89
2023-05-21T19:32:26.928Z,27.82
2023-05-21T19:34:54.780Z,27.72
2023-05-21T19:37:22.776Z,27.65
2023-05-21T19:39:50.571Z,27.57
2023-05-21T19:42:21.298Z,27.49
2023-05-21T19:44:49.113Z,27.39
2023-05-21T19:47:19.819Z,27.34
2023-05-21T19:49:47.551Z,27.24
2023-05-21T19:52:17.178Z,27.19
2023-05-21T19:54:45.283Z,27.14
2023-05-21T19:57:13.608Z,27.09
2023-05-21T19:59:41.487Z,27.01
2023-05-21T20:02:12.705Z,26.97
2023-05-21T20:04:40.454Z,26.66
2023-05-21T20:07:08.634Z,26.68
2023-05-21T20:09:36.456Z,26.64
2023-05-21T20:12:06.440Z,26.57
2023-05-21T20:14:35.627Z,26.48
2023-05-21T20:17:05.619Z,26.41
2023-05-21T20:19:33.560Z,26.38
2023-05-21T20:22:02.443Z,26.34
2023-05-21T20:24:34.104Z,26.28
2023-05-21T20:27:01.954Z,26.23
2023-05-21T20:29:29.868Z,26.20
2023-05-21T20:31:57.967Z,26.11
2023-05-21T20:34:27.335Z,26.08
2023-05-21T20:36:58.228Z,26.03
2023-05-21T20:39:29.814Z,25.94
2023-05-21T20:41:58.390Z,25.90
2023-05-21T20:44:27.533Z,25.80
2023-05-21T20:46:55.362Z,25.78
2023-05-21T20:49:24.940Z,25.73
2023-05-21T20:51:52.871Z,25.68
2023-05-21T20:54:22.237Z,25.65
2023-05-21T20:56:50.637Z,25.60
2023-05-21T20:59:18.490Z,25.56
2023-05-21T21:01:46.527Z,25.50
2023-05-21T21:04:14.301Z,25.46
2023-05-21T21:06:42.131Z,25.41
2023-05-21T21:09:10.100Z,25.38
2023-05-21T21:11:37.875Z,25.32
2023-05-21T21:14:05.795Z,25.27
2023-05-21T21:16:33.667Z,25.20
2023-05-21T21:19:01.654Z,25.14
2023-05-21T21:21:29.562Z,25.11
2023-05-21T21:23:57.431Z,25.04
2023-05-21T21:26:25.260Z,24.99
2023-05-21T21:28:53.110Z,24.94
2023-05-21T21:31:21.254Z,24.88
2023-05-21T21:33:49.535Z,24.82
2023-05-21T21:36:17.548Z,24.80
2023-05-21T21:38:45.287Z,24.74
2023-05-21T21:41:13.614Z,24.71
2023-05-21T21:43:41.492Z,24.63
2023-05-21T21:46:09.378Z,24.62
2023-05-21T21:48:37.376Z,24.58
2023-05-21T21:51:05.690Z,24.53
2023-05-21T21:53:35.479Z,24.45
2023-05-21T21:56:03.321Z,24.38
2023-05-21T21:58:31.664Z,24.28
2023-05-21T22:00:59.572Z,24.21
2023-05-21T22:03:27.386Z,24.12
2023-05-21T22:05:55.400Z,24.04
2023-05-21T22:08:23.367Z,23.94
2023-05-21T22:10:51.290Z,23.85
2023-05-21T22:13:19.102Z,23.85
2023-05-21T22:15:47.252Z,23.80
2023-05-21T22:18:20.402Z,23.80
2023-05-21T22:20:53.088Z,23.82
2023-05-21T22:23:21.198Z,23.80
2023-05-21T22:25:49.068Z,23.83
2023-05-21T22:28:16.893Z,23.84
2023-05-21T22:30:44.706Z,23.86
2023-05-21T22:33:12.529Z,23.87
2023-05-21T22:35:40.331Z,23.86
2023-05-21T22:38:08.075Z,23.89
2023-05-21T22:40:36.224Z,23.90
2023-05-21T22:43:04.778Z,23.89
2023-05-21T22:45:32.579Z,23.90
2023-05-21T22:48:07.422Z,23.89
2023-05-21T22:50:36.260Z,23.89
2023-05-21T22:53:04.305Z,23.88
2023-05-21T22:55:32.047Z,23.88
2023-05-21T22:57:59.777Z,23.88
2023-05-21T23:00:29.162Z,23.88
2023-05-21T23:02:59.211Z,23.86
2023-05-21T23:05:27.111Z,23.87
2023-05-21T23:07:54.894Z,23.85
2023-05-21T23:10:22.855Z,23.83
2023-05-21T23:12:50.629Z,23.82
2023-05-21T23:15:18.984Z,23.80
2023-05-21T23:17:46.907Z,23.78
2023-05-21T23:20:15.438Z,23.76
2023-05-21T23:22:43.246Z,23.74
2023-05-21T23:25:11.020Z,23.70
2023-05-21T23:27:39.181Z,23.65
2023-05-21T23:30:07.927Z,23.65
2023-05-21T23:32:35.769Z,23.63
2023-05-21T23:35:03.734Z,23.57
2023-05-21T23:37:31.669Z,23.54
2023-05-21T23:39:59.500Z,23.53
2023-05-21T23:42:27.339Z,23.50
2023-05-21T23:44:56.251Z,23.48
2023-05-21T23:47:23.974Z,23.43
2023-05-21T23:49:52.654Z,23.40
2023-05-21T23:52:20.474Z,23.34
2023-05-21T23:54:48.249Z,23.30
2023-05-21T23:57:16.090Z,23.25
2023-05-21T23:59:43.843Z,23.17
